Time;durP1;ratioP1;P1;durP2;ratioP2;P2;SDS_P1;SDS_P2;PMS_P1;PMS_P2;Temp;Humidity;BMP_temperature;BMP_pressure;BME280_temperature;BME280_humidity;BME280_pressure;Samples;Min_cycle;Max_cycle;Signal;HPM_P1;HPM_P2
2023/12/29 00:04:23;;;;;;;9.73;6.80;;;;;;;8.62;100.00;100297.94;12691387;23;20086;-69
2023/12/29 00:09:20;;;;;;;18.33;9.10;;;;;;;8.22;100.00;100246.13;12694092;22;20031;-68
2023/12/29 00:14:17;;;;;;;11.88;8.77;;;;;;;7.95;100.00;100180.97;12693017;23;20020;-68
2023/12/29 00:19:14;;;;;;;11.30;8.77;;;;;;;7.96;100.00;100158.06;12693587;22;20024;-69
2023/12/29 00:24:11;;;;;;;12.85;7.78;;;;;;;7.86;100.00;100164.59;12687170;22;20024;-69
2023/12/29 00:29:08;;;;;;;10.10;8.15;;;;;;;7.83;100.00;100118.16;12617501;23;20100;-68
2023/12/29 00:34:04;;;;;;;9.52;8.38;;;;;;;7.84;100.00;100111.59;12633276;23;20075;-68
2023/12/29 00:39:01;;;;;;;19.65;9.43;;;;;;;7.78;100.00;100092.69;12634792;23;20652;-68
2023/12/29 00:43:58;;;;;;;15.50;8.30;;;;;;;7.85;100.00;100083.28;12628615;23;20075;-68
2023/12/29 00:48:54;;;;;;;11.77;8.50;;;;;;;7.86;100.00;100073.97;12634298;23;20467;-68
2023/12/29 00:53:51;;;;;;;19.90;9.43;;;;;;;7.85;100.00;100061.50;12633158;23;20028;-68
2023/12/29 00:58:47;;;;;;;14.18;9.07;;;;;;;7.89;100.00;100062.44;12634319;23;20048;-68
2023/12/29 01:03:44;;;;;;;13.95;8.95;;;;;;;7.95;100.00;100066.63;12634638;23;20051;-68
2023/12/29 01:09:00;;;;;;;13.57;8.65;;;;;;;8.01;100.00;100057.22;12594866;23;20032;-68
2023/12/29 01:14:00;;;;;;;11.45;9.00;;;;;;;8.07;100.00;100058.66;12573294;23;20104;-68
2023/12/29 01:18:56;;;;;;;10.43;8.98;;;;;;;8.18;100.00;100049.06;12622447;23;20029;-68
2023/12/29 01:23:53;;;;;;;10.57;9.23;;;;;;;8.12;100.00;100076.78;12634737;23;20585;-68
2023/12/29 01:28:49;;;;;;;12.20;9.45;;;;;;;7.98;100.00;100075.00;12628694;23;20112;-69
2023/12/29 01:33:46;;;;;;;15.60;9.68;;;;;;;7.94;100.00;100054.16;12633876;23;20036;-68
2023/12/29 01:38:42;;;;;;;13.77;9.57;;;;;;;7.94;100.00;100065.06;12633635;23;20559;-68
2023/12/29 01:43:54;;;;;;;8.65;7.95;;;;;;;7.93;100.00;100063.44;12625727;23;20051;-68
2023/12/29 01:48:51;;;;;;;12.57;9.40;;;;;;;7.96;100.00;100041.00;12636671;23;20032;-68
2023/12/29 01:53:48;;;;;;;9.65;8.75;;;;;;;8.00;100.00;100025.66;12635987;23;20467;-69
2023/12/29 01:58:47;;;;;;;12.00;10.02;;;;;;;8.09;100.00;100040.09;12637086;23;20178;-71
2023/12/29 02:03:47;;;;;;;11.43;8.88;;;;;;;8.09;100.00;100018.31;12636075;23;20035;-69
2023/12/29 02:08:44;;;;;;;10.77;9.13;;;;;;;8.05;100.00;100009.16;12609898;23;20384;-69
2023/12/29 02:13:41;;;;;;;15.45;10.07;;;;;;;8.02;100.00;100004.38;12635294;23;20025;-71
2023/12/29 02:18:41;;;;;;;10.90;9.50;;;;;;;8.12;100.00;100012.25;12636569;23;20036;-71
2023/12/29 02:23:37;;;;;;;10.82;9.18;;;;;;;8.17;100.00;100014.81;12636672;23;20028;-71
2023/12/29 02:28:39;;;;;;;10.63;9.63;;;;;;;8.15;100.00;100011.59;12635883;23;20078;-72
2023/12/29 02:33:40;;;;;;;10.20;9.30;;;;;;;8.19;100.00;100011.75;12629979;23;20419;-71
2023/12/29 02:38:38;;;;;;;11.95;9.98;;;;;;;8.18;100.00;99986.44;12635860;23;20028;-72
2023/12/29 02:43:35;;;;;;;15.25;11.40;;;;;;;8.20;100.00;99986.94;12635834;23;20091;-71
2023/12/29 02:53:39;;;;;;;10.68;9.60;;;;;;;8.36;100.00;99961.94;12658946;23;20405;-69
2023/12/29 02:58:36;;;;;;;13.55;9.50;;;;;;;8.47;100.00;99990.50;12652449;23;20466;-69
2023/12/29 03:03:32;;;;;;;11.73;9.43;;;;;;;8.45;100.00;99992.75;12679346;23;20366;-70
2023/12/29 03:08:29;;;;;;;9.00;8.13;;;;;;;8.55;100.00;99973.34;12696264;22;20031;-69
2023/12/29 03:13:26;;;;;;;12.15;8.23;;;;;;;8.54;100.00;99963.56;12696674;23;20634;-69
2023/12/29 03:18:22;;;;;;;8.98;8.07;;;;;;;8.53;100.00;100008.28;12697378;22;20534;-69
2023/12/29 03:23:19;;;;;;;10.48;8.90;;;;;;;8.25;100.00;99982.44;12696378;23;20062;-70
2023/12/29 03:28:15;;;;;;;9.98;9.07;;;;;;;8.03;100.00;99965.16;12696402;22;20528;-69
2023/12/29 03:33:12;;;;;;;11.35;10.32;;;;;;;7.87;100.00;99977.63;12690847;23;20051;-69
2023/12/29 03:38:49;;;;;;;10.20;9.40;;;;;;;7.92;100.00;99963.84;12659401;22;20028;-69
2023/12/29 03:44:03;;;;;;;17.13;10.32;;;;;;;7.91;100.00;99940.44;12447144;23;20026;-70
2023/12/29 03:48:59;;;;;;;11.15;9.73;;;;;;;7.87;100.00;99934.06;12446236;23;20048;-69
2023/12/29 03:53:58;;;;;;;12.13;10.85;;;;;;;7.93;100.00;99943.66;12447052;23;20107;-69
2023/12/29 03:58:55;;;;;;;10.73;9.88;;;;;;;8.00;100.00;99943.97;12446014;23;20061;-69
2023/12/29 04:03:51;;;;;;;11.02;10.02;;;;;;;8.03;100.00;99948.81;12439537;23;20029;-69
2023/12/29 04:08:48;;;;;;;11.77;10.73;;;;;;;7.98;100.00;99962.56;12445573;23;20034;-69
2023/12/29 04:13:44;;;;;;;9.95;8.93;;;;;;;7.79;100.00;99977.25;12446385;23;20018;-69
2023/12/29 04:18:41;;;;;;;9.73;8.57;;;;;;;7.56;100.00;100005.69;12491490;23;20028;-68
2023/12/29 04:23:37;;;;;;;8.15;7.45;;;;;;;7.07;100.00;100026.56;12588369;23;20031;-68
2023/12/29 04:28:34;;;;;;;7.68;6.95;;;;;;;6.59;100.00;100098.66;12615702;23;20096;-68
2023/12/29 04:33:31;;;;;;;8.80;8.10;;;;;;;6.15;100.00;99997.00;12633269;23;20024;-70
2023/12/29 04:38:29;;;;;;;9.40;8.80;;;;;;;5.93;100.00;99951.56;12584262;23;20025;-68
2023/12/29 04:43:25;;;;;;;9.48;8.60;;;;;;;5.79;100.00;99937.22;12572573;23;20036;-68
2023/12/29 04:48:22;;;;;;;10.00;9.20;;;;;;;5.68;100.00;99967.28;12573259;23;20084;-67
2023/12/29 04:53:18;;;;;;;9.25;8.63;;;;;;;5.66;100.00;99953.25;12571788;23;20021;-67
2023/12/29 04:58:15;;;;;;;12.07;9.05;;;;;;;5.61;100.00;99961.47;12573157;23;20025;-67
2023/12/29 05:03:11;;;;;;;9.45;8.70;;;;;;;5.56;100.00;99936.38;12572819;23;20096;-68
2023/12/29 05:08:08;;;;;;;9.80;8.90;;;;;;;5.56;100.00;99948.00;12571528;23;20025;-68
2023/12/29 05:13:04;;;;;;;9.70;8.90;;;;;;;5.64;100.00;99912.06;12567195;23;20029;-68
2023/12/29 05:18:01;;;;;;;9.93;9.05;;;;;;;5.76;100.00;99937.84;12576617;23;20072;-67
2023/12/29 05:22:58;;;;;;;12.05;9.93;;;;;;;5.84;100.00;99915.41;12575252;23;20033;-68
2023/12/29 05:27:54;;;;;;;11.88;9.93;;;;;;;5.84;100.00;99912.69;12575832;23;20025;-67
2023/12/29 05:32:51;;;;;;;10.98;9.90;;;;;;;5.81;100.00;99905.19;12575125;23;20020;-66
2023/12/29 05:37:48;;;;;;;10.85;9.70;;;;;;;5.83;100.00;99913.81;12575166;23;20025;-69
2023/12/29 05:42:44;;;;;;;11.18;10.07;;;;;;;5.82;100.00;99912.19;12571239;23;20071;-69
2023/12/29 05:47:41;;;;;;;10.52;9.65;;;;;;;5.93;100.00;99908.16;12575143;23;20029;-68
2023/12/29 05:52:38;;;;;;;11.05;10.00;;;;;;;6.01;100.00;99915.59;12569803;23;20063;-68
2023/12/29 05:57:34;;;;;;;11.52;10.32;;;;;;;6.09;100.00;99928.44;12576034;23;20491;-68
2023/12/29 06:02:31;;;;;;;10.82;9.70;;;;;;;6.21;100.00;99916.22;12574281;23;20021;-68
2023/12/29 06:07:27;;;;;;;13.32;9.70;;;;;;;6.26;100.00;99943.25;12575172;23;20509;-68
2023/12/29 06:12:24;;;;;;;10.73;9.80;;;;;;;6.26;100.00;99900.59;12575204;23;20025;-68
2023/12/29 06:17:20;;;;;;;11.45;10.38;;;;;;;6.32;100.00;99917.59;12575167;23;20029;-68
2023/12/29 06:22:17;;;;;;;11.63;10.02;;;;;;;6.42;100.00;99944.47;12576000;23;20040;-70
2023/12/29 06:27:13;;;;;;;12.93;9.75;;;;;;;6.51;100.00;99923.63;12574654;23;20025;-70
2023/12/29 06:32:10;;;;;;;12.00;10.48;;;;;;;6.44;100.00;99923.25;12574476;23;20032;-69
2023/12/29 06:37:06;;;;;;;16.50;10.57;;;;;;;6.45;100.00;99922.16;12570277;23;20029;-70
2023/12/29 06:42:03;;;;;;;11.57;10.43;;;;;;;6.44;100.00;99922.47;12574139;23;20105;-69
2023/12/29 06:47:00;;;;;;;15.93;10.32;;;;;;;6.46;100.00;99937.34;12574645;23;20025;-72
2023/12/29 06:51:56;;;;;;;13.85;11.10;;;;;;;6.59;100.00;99945.72;12574684;23;20095;-71
2023/12/29 06:56:53;;;;;;;13.88;11.38;;;;;;;6.67;100.00;99942.25;12569798;23;20024;-70
2023/12/29 07:01:50;;;;;;;12.15;10.77;;;;;;;6.78;100.00;99938.19;12549266;23;20021;-69
2023/12/29 07:06:46;;;;;;;13.70;11.20;;;;;;;6.73;100.00;99944.53;12575223;23;20040;-70
2023/12/29 07:11:49;;;;;;;15.25;10.98;;;;;;;6.86;100.00;99933.91;12574418;23;20024;-71
2023/12/29 07:16:46;;;;;;;16.65;11.52;;;;;;;6.89;100.00;99946.84;12574013;23;20713;-71
2023/12/29 07:21:43;;;;;;;17.35;11.88;;;;;;;6.97;100.00;99948.03;12573151;23;20032;-72
2023/12/29 07:26:40;;;;;;;18.40;10.30;;;;;;;6.99;100.00;99948.53;12572117;23;20059;-70
2023/12/29 07:31:41;;;;;;;15.98;12.07;;;;;;;6.94;100.00;99952.97;12571896;23;20029;-71
2023/12/29 07:36:40;;;;;;;13.82;11.05;;;;;;;7.10;100.00;99949.81;12546871;23;20036;-75
2023/12/29 07:41:41;;;;;;;21.08;13.07;;;;;;;7.08;100.00;99958.31;12570715;23;20052;-74
2023/12/29 07:46:41;;;;;;;18.02;12.10;;;;;;;7.13;100.00;99965.53;12571702;23;20021;-72
2023/12/29 07:51:42;;;;;;;21.38;12.23;;;;;;;7.25;100.00;99963.03;12572427;23;20031;-74
2023/12/29 07:56:39;;;;;;;12.63;11.55;;;;;;;7.37;100.00;99982.25;12554147;23;20031;-72
2023/12/29 08:01:36;;;;;;;15.40;11.95;;;;;;;7.48;100.00;99992.88;12571215;23;20032;-72
2023/12/29 08:23:02;;;;;;;18.10;12.20;;;;;;;7.53;100.00;100028.88;12459836;23;20023;-75
2023/12/29 09:10:13;;;;;;;;;;;;;;;;;;;;;
2023/12/29 09:21:31;;;;;;;11.43;9.38;;;;;;;6.56;100.00;100027.81;12566681;23;20025;-73
2023/12/29 09:27:56;;;;;;;9.75;8.98;;;;;;;6.43;100.00;100046.59;12433054;22;20087;-73
2023/12/29 09:33:25;;;;;;;9.48;8.48;;;;;;;6.43;100.00;100035.72;12545654;22;20412;-74
2023/12/29 09:38:24;;;;;;;10.05;9.20;;;;;;;6.50;100.00;100013.56;12633287;23;20050;-77
2023/12/29 09:43:21;;;;;;;11.95;9.05;;;;;;;6.67;100.00;100035.44;12636290;23;20021;-75
2023/12/29 09:48:19;;;;;;;10.38;9.05;;;;;;;6.50;100.00;100029.88;12675994;22;20020;-73
2023/12/29 09:53:17;;;;;;;11.40;8.60;;;;;;;6.53;100.00;100002.88;12694815;23;20027;-73
2023/12/29 09:58:15;;;;;;;9.48;8.55;;;;;;;6.48;100.00;99984.00;12691830;22;20028;-73
2023/12/29 10:03:11;;;;;;;12.00;9.20;;;;;;;6.67;100.00;99970.22;12689925;23;20027;-73
2023/12/29 10:08:09;;;;;;;14.30;11.13;;;;;;;6.71;100.00;99975.84;12688963;22;20054;-72
2023/12/29 10:13:07;;;;;;;18.73;10.38;;;;;;;6.79;100.00;99975.09;12694715;23;20016;-73
2023/12/29 10:25:05;;;;;;;13.52;11.23;;;;;;;6.72;100.00;99958.44;12389030;23;20026;-73
2023/12/29 10:30:03;;;;;;;20.02;11.30;;;;;;;6.86;100.00;99967.31;12339850;23;20345;-73
2023/12/29 10:35:10;;;;;;;19.55;11.63;;;;;;;6.95;100.00;99967.34;12548174;23;20029;-73
2023/12/29 10:46:08;;;;;;;18.60;11.65;;;;;;;6.97;100.00;99983.34;12618587;23;20473;-73
2023/12/29 11:04:00;;;;;;;15.88;11.25;;;;;;;7.18;100.00;99999.94;12627581;22;20028;-74
2023/12/29 11:08:57;;;;;;;15.45;12.57;;;;;;;7.17;100.00;100015.44;12629088;23;20021;-73
2023/12/29 11:13:55;;;;;;;15.23;11.80;;;;;;;7.20;100.00;99998.50;12631166;23;20020;-75
2023/12/29 12:19:58;;;;;;;12.70;11.50;;;;;;;7.57;100.00;99989.06;12570607;23;20048;-74
2023/12/29 12:24:57;;;;;;;13.98;11.57;;;;;;;7.90;100.00;100004.19;12631916;23;20470;-74
2023/12/29 12:29:57;;;;;;;13.23;7.88;;;;;;;8.70;100.00;100025.72;12577639;23;20021;-74
2023/12/29 12:34:54;;;;;;;11.02;8.77;;;;;;;8.98;100.00;100029.72;12572920;23;20398;-74
2023/12/29 13:08:07;;;;;;;12.20;10.57;;;;;;;8.15;100.00;100055.16;12644470;22;20016;-75
2023/12/29 13:39:48;;;;;;;12.05;10.85;;;;;;;7.44;100.00;100019.09;12634891;23;20036;-75
2023/12/29 13:51:49;;;;;;;10.98;9.82;;;;;;;7.11;100.00;99973.19;12155101;23;20030;-75
2023/12/29 13:57:38;;;;;;;;;;;;;;;;;;;;;
2023/12/29 14:17:22;;;;;;;12.35;10.93;;;;;;;6.77;100.00;99958.28;12217472;23;20006;-75
2023/12/29 14:22:34;;;;;;;18.88;12.52;;;;;;;6.71;100.00;99965.00;12193951;23;20023;-73
2023/12/29 14:27:43;;;;;;;15.77;12.57;;;;;;;6.74;100.00;99964.34;12485575;23;20485;-76
2023/12/29 15:02:53;;;;;;;16.50;12.77;;;;;;;6.90;100.00;100066.13;12632546;22;20025;-72
2023/12/29 16:45:33;;;;;;;11.73;8.57;;;;;;;6.88;100.00;100187.91;12603195;23;20017;-75
2023/12/29 16:50:29;;;;;;;18.23;8.10;;;;;;;6.99;100.00;100198.56;12620089;23;20047;-74
2023/12/29 16:55:26;;;;;;;16.70;7.88;;;;;;;6.90;100.00;100196.56;12632254;23;20027;-74
2023/12/29 17:00:22;;;;;;;21.98;8.32;;;;;;;6.81;100.00;100190.25;12695109;23;20031;-74
2023/12/29 17:05:19;;;;;;;10.93;7.47;;;;;;;6.82;100.00;100208.16;12668617;23;20055;-74
2023/12/29 17:10:16;;;;;;;18.83;8.20;;;;;;;6.86;100.00;100225.47;12694542;23;20074;-74
2023/12/29 17:15:12;;;;;;;13.00;8.43;;;;;;;6.70;100.00;100224.19;12671798;23;20051;-73
2023/12/29 17:30:55;;;;;;;15.37;8.20;;;;;;;6.81;100.00;100220.13;12637672;22;20024;-74
2023/12/29 17:42:58;;;;;;;13.75;9.18;;;;;;;6.73;100.00;100223.59;12349548;23;20042;-74
2023/12/29 18:00:06;;;;;;;10.10;7.43;;;;;;;6.95;100.00;100226.34;12561230;23;20451;-73
2023/12/29 18:05:03;;;;;;;11.63;8.93;;;;;;;6.81;100.00;100217.41;12568062;23;20036;-73
2023/12/29 18:10:00;;;;;;;19.42;10.48;;;;;;;6.80;100.00;100207.69;12571438;23;20076;-73
2023/12/29 18:14:56;;;;;;;15.43;9.40;;;;;;;6.69;100.00;100204.34;12632961;23;20542;-74
2023/12/29 18:53:15;;;;;;;13.98;9.57;;;;;;;6.85;100.00;100204.84;12570567;23;20021;-74
2023/12/29 19:29:27;;;;;;;15.57;8.23;;;;;;;7.04;100.00;100184.88;12633748;23;20021;-72
2023/12/29 19:34:24;;;;;;;15.70;8.70;;;;;;;7.05;100.00;100197.34;12699087;23;20054;-72
2023/12/29 19:39:21;;;;;;;10.07;8.10;;;;;;;7.04;100.00;100174.00;12704373;23;20616;-72
2023/12/29 19:44:17;;;;;;;12.38;7.80;;;;;;;7.08;100.00;100191.31;12700984;23;20028;-72
2023/12/29 19:50:44;;;;;;;12.30;8.10;;;;;;;7.09;100.00;100184.75;12659503;22;20386;-72
2023/12/29 20:01:47;;;;;;;;;;;;;;;;;;;;;
2023/12/29 20:07:03;;;;;;;17.33;7.40;;;;;;;7.10;100.00;100194.50;12609008;23;20410;-72
2023/12/29 20:11:59;;;;;;;15.15;7.35;;;;;;;7.10;100.00;100195.31;12568550;23;20025;-72
2023/12/29 20:16:56;;;;;;;8.70;6.80;;;;;;;7.12;100.00;100192.28;12574416;23;20048;-72
2023/12/29 20:21:53;;;;;;;9.07;6.63;;;;;;;7.13;100.00;100204.78;12577918;23;20036;-72
2023/12/29 20:26:50;;;;;;;8.20;7.05;;;;;;;7.12;100.00;100198.50;12576730;23;20024;-71
2023/12/29 20:31:47;;;;;;;13.20;6.90;;;;;;;7.14;100.00;100198.22;12578552;23;20675;-71
2023/12/29 20:36:43;;;;;;;13.10;7.90;;;;;;;7.16;100.00;100198.72;12578976;23;20033;-73
2023/12/29 20:41:41;;;;;;;15.77;7.82;;;;;;;7.06;100.00;100198.97;12576605;23;20611;-72
2023/12/29 20:51:50;;;;;;;15.53;9.37;;;;;;;7.14;100.00;100211.81;12639182;22;20459;-71
2023/12/29 20:56:47;;;;;;;11.55;9.25;;;;;;;7.10;100.00;100205.38;12635100;22;20059;-71
2023/12/29 21:01:43;;;;;;;13.43;8.57;;;;;;;7.04;100.00;100195.72;12637257;23;20634;-70
2023/12/29 21:06:40;;;;;;;9.55;7.68;;;;;;;6.84;100.00;100191.53;12641365;23;20066;-72
2023/12/29 21:11:37;;;;;;;8.20;7.40;;;;;;;6.64;100.00;100190.88;12635647;23;20024;-71
2023/12/29 21:16:34;;;;;;;7.93;7.28;;;;;;;6.51;100.00;100211.50;12633900;23;20033;-72
2023/12/29 21:21:38;;;;;;;8.38;7.40;;;;;;;6.38;100.00;100204.16;12641775;23;20029;-72
2023/12/29 21:26:38;;;;;;;7.88;6.05;;;;;;;6.31;100.00;100217.34;12639511;23;20028;-71
2023/12/29 21:31:34;;;;;;;8.75;6.30;;;;;;;6.23;100.00;100215.34;12640088;23;20036;-71
2023/12/29 21:36:32;;;;;;;6.55;5.68;;;;;;;6.17;100.00;100216.53;12640358;23;20029;-72
2023/12/29 21:41:30;;;;;;;6.80;6.20;;;;;;;6.16;100.00;100221.16;12627753;23;20024;-70
2023/12/29 21:46:27;;;;;;;7.22;6.38;;;;;;;6.09;100.00;100232.41;12635096;23;20065;-72
2023/12/29 21:51:24;;;;;;;9.77;6.65;;;;;;;6.02;100.00;100221.16;12632844;23;20029;-73
2023/12/29 21:56:21;;;;;;;6.75;5.90;;;;;;;5.95;100.00;100223.44;12633572;23;20358;-72
2023/12/29 22:01:37;;;;;;;6.88;6.18;;;;;;;5.91;100.00;100222.41;12634852;23;20024;-71
2023/12/29 22:06:38;;;;;;;6.32;5.80;;;;;;;5.91;100.00;100230.53;12633655;23;20639;-70
2023/12/29 22:11:35;;;;;;;6.82;6.20;;;;;;;5.91;100.00;100242.19;12630792;23;20095;-70
2023/12/29 22:17:03;;;;;;;6.25;5.65;;;;;;;5.94;100.00;100249.00;12627749;23;20016;-71
2023/12/29 22:22:00;;;;;;;5.88;5.38;;;;;;;5.94;100.00;100262.56;12575504;22;20079;-71
2023/12/29 22:26:58;;;;;;;6.28;5.43;;;;;;;5.95;100.00;100253.31;12567993;23;20434;-69
2023/12/29 22:31:55;;;;;;;8.55;7.75;;;;;;;5.95;100.00;100252.50;12575094;23;20067;-70
2023/12/29 22:42:46;;;;;;;;;;;;;;;;;;;;;
2023/12/29 22:48:39;;;;;;;6.20;5.60;;;;;;;5.97;100.00;100261.94;12646927;22;20029;-70
2023/12/29 22:53:53;;;;;;;5.90;5.40;;;;;;;5.97;100.00;100278.22;12640139;22;20051;-69
2023/12/29 22:59:42;;;;;;;;;;;;;;;;;;;;;
2023/12/29 23:05:03;;;;;;;5.70;5.30;;;;;;;5.93;100.00;100266.31;12634685;23;20013;-69
2023/12/29 23:09:59;;;;;;;7.88;6.82;;;;;;;5.74;100.00;100262.88;12636762;23;20035;-69
2023/12/29 23:14:56;;;;;;;7.63;6.13;;;;;;;5.73;100.00;100256.59;12630960;23;20474;-68
2023/12/29 23:19:52;;;;;;;10.60;6.80;;;;;;;5.77;100.00;100260.34;12634081;23;20020;-69
2023/12/29 23:24:49;;;;;;;10.93;6.60;;;;;;;5.79;100.00;100260.06;12635666;23;20489;-69
2023/12/29 23:29:45;;;;;;;8.52;6.65;;;;;;;5.84;100.00;100251.84;12628926;23;20051;-69
2023/12/29 23:34:42;;;;;;;10.55;7.00;;;;;;;5.86;100.00;100244.19;12633973;23;20020;-69
2023/12/29 23:39:39;;;;;;;14.85;6.65;;;;;;;5.83;100.00;100244.81;12633074;23;20091;-69
2023/12/29 23:44:36;;;;;;;11.70;7.15;;;;;;;5.87;100.00;100240.38;12634638;23;20028;-69
2023/12/29 23:49:33;;;;;;;8.05;6.20;;;;;;;5.87;100.00;100234.94;12635333;23;20024;-69
2023/12/29 23:54:29;;;;;;;10.43;6.40;;;;;;;5.88;100.00;100253.66;12635038;23;20021;-69
2023/12/29 23:59:26;;;;;;;10.82;6.68;;;;;;;5.86;100.00;100255.06;12634499;23;20635;-70
